Time;durP1;ratioP1;P1;durP2;ratioP2;P2;SDS_P1;SDS_P2;PMS_P1;PMS_P2;Temp;Humidity;BMP_temperature;BMP_pressure;BME280_temperature;BME280_humidity;BME280_pressure;Samples;Min_cycle;Max_cycle;Signal;HPM_P1;HPM_P2
2023/05/04 00:02:00;;;;;;;2.00;1.08;;;19.70;71.00;;;;;;5031686;28;20026;-67
2023/05/04 00:04:25;;;;;;;1.35;1.13;;;19.70;70.90;;;;;;5032339;28;20025;-67
2023/05/04 00:06:51;;;;;;;2.05;1.27;;;19.70;71.00;;;;;;5032108;28;20083;-67
2023/05/04 00:09:16;;;;;;;2.55;1.30;;;19.70;70.90;;;;;;5033138;28;20022;-67
2023/05/04 00:11:42;;;;;;;1.65;1.00;;;19.70;71.00;;;;;;5033387;28;20033;-67
2023/05/04 00:14:08;;;;;;;1.92;1.65;;;19.70;71.00;;;;;;5033436;28;20033;-67
2023/05/04 00:16:34;;;;;;;1.48;1.08;;;19.70;71.00;;;;;;5033161;28;20567;-67
2023/05/04 00:19:00;;;;;;;1.35;1.20;;;19.70;71.00;;;;;;5033348;28;20029;-67
2023/05/04 00:21:25;;;;;;;1.55;1.20;;;19.70;71.00;;;;;;5033184;28;20534;-67
2023/05/04 00:23:51;;;;;;;1.73;1.15;;;19.70;71.00;;;;;;5032948;28;20029;-67
2023/05/04 00:26:17;;;;;;;2.42;1.38;;;19.70;71.10;;;;;;5033185;28;20104;-67
2023/05/04 00:28:42;;;;;;;1.42;1.30;;;19.70;71.10;;;;;;5033087;28;20360;-67
2023/05/04 00:31:08;;;;;;;1.60;1.27;;;19.70;71.10;;;;;;5031783;28;20021;-67
2023/05/04 00:33:34;;;;;;;2.80;1.45;;;19.70;71.20;;;;;;5031943;28;20028;-67
2023/05/04 00:36:02;;;;;;;3.40;1.40;;;19.70;71.20;;;;;;5033121;28;20033;-67
2023/05/04 00:38:27;;;;;;;1.90;1.30;;;19.70;71.20;;;;;;5032701;28;20091;-67
2023/05/04 00:40:53;;;;;;;1.30;1.20;;;19.70;71.20;;;;;;5031846;28;20038;-67
2023/05/04 00:43:19;;;;;;;1.17;1.15;;;19.70;71.20;;;;;;5032998;28;20030;-67
2023/05/04 00:45:44;;;;;;;1.80;1.30;;;19.70;71.30;;;;;;5032661;28;20044;-67
2023/05/04 00:48:10;;;;;;;2.45;1.20;;;19.70;71.30;;;;;;5031788;28;20025;-67
2023/05/04 00:50:36;;;;;;;2.08;1.20;;;19.70;71.30;;;;;;5031670;28;20072;-67
2023/05/04 00:53:05;;;;;;;1.17;0.98;;;19.60;71.30;;;;;;5032949;28;20021;-67
2023/05/04 00:55:31;;;;;;;1.00;1.00;;;19.60;71.30;;;;;;5032800;28;20079;-67
2023/05/04 00:57:56;;;;;;;1.23;1.13;;;19.70;71.40;;;;;;5031371;28;20439;-68
2023/05/04 01:00:22;;;;;;;2.08;1.00;;;19.60;71.40;;;;;;5032623;28;20436;-68
2023/05/04 01:02:48;;;;;;;2.08;1.08;;;19.60;71.50;;;;;;5032786;28;20372;-67
2023/05/04 01:05:14;;;;;;;1.27;1.17;;;19.70;71.60;;;;;;5032611;28;20029;-67
2023/05/04 01:08:12;;;;;;;2.60;1.30;;;19.60;71.70;;;;;;5031633;28;20025;-67
2023/05/04 01:10:44;;;;;;;1.30;1.20;;;19.60;71.60;;;;;;5032631;28;20026;-68
2023/05/04 01:13:14;;;;;;;1.20;1.10;;;19.60;72.10;;;;;;5032841;28;20481;-67
2023/05/04 01:15:39;;;;;;;1.25;1.10;;;19.60;71.80;;;;;;5031079;28;20116;-68
2023/05/04 01:18:06;;;;;;;1.35;1.10;;;19.60;71.80;;;;;;5031475;28;20112;-67
2023/05/04 01:20:31;;;;;;;1.23;1.10;;;19.60;71.90;;;;;;5031434;28;20026;-67
2023/05/04 01:22:57;;;;;;;1.55;1.35;;;19.60;72.00;;;;;;5036143;28;20105;-67
2023/05/04 01:25:29;;;;;;;1.52;1.20;;;19.60;72.00;;;;;;5035447;28;20431;-67
2023/05/04 01:28:11;;;;;;;1.48;1.10;;;19.60;72.00;;;;;;5035125;28;20101;-68
2023/05/04 01:30:42;;;;;;;1.13;1.02;;;19.60;72.00;;;;;;5034904;28;20037;-67
2023/05/04 01:33:08;;;;;;;1.42;1.10;;;19.60;72.10;;;;;;5035396;28;20022;-67
2023/05/04 01:35:34;;;;;;;1.60;1.13;;;19.60;72.00;;;;;;5034994;28;20049;-67
2023/05/04 01:38:00;;;;;;;1.50;1.40;;;19.60;72.00;;;;;;5034748;28;20095;-67
2023/05/04 01:40:25;;;;;;;2.58;1.42;;;19.60;72.00;;;;;;5035018;28;20091;-68
2023/05/04 01:42:51;;;;;;;1.17;1.00;;;19.60;72.10;;;;;;5036146;28;20108;-67
2023/05/04 01:45:17;;;;;;;1.25;1.15;;;19.60;72.10;;;;;;5035946;28;20026;-68
2023/05/04 01:47:43;;;;;;;1.23;1.13;;;19.60;72.10;;;;;;5034819;28;20056;-67
2023/05/04 01:50:08;;;;;;;1.42;1.10;;;19.60;72.10;;;;;;5034775;28;20102;-68
2023/05/04 01:52:34;;;;;;;1.38;1.27;;;19.60;72.10;;;;;;5035899;28;20050;-67
2023/05/04 01:55:00;;;;;;;1.30;1.20;;;19.50;72.10;;;;;;5036076;28;20033;-68
2023/05/04 01:57:25;;;;;;;1.08;1.08;;;19.60;72.20;;;;;;5035674;28;20037;-67
2023/05/04 01:59:51;;;;;;;1.30;1.20;;;19.50;72.20;;;;;;5035483;28;20038;-67
2023/05/04 02:02:17;;;;;;;1.38;1.27;;;19.60;72.20;;;;;;5035765;28;20109;-67
2023/05/04 02:04:42;;;;;;;1.20;1.10;;;19.60;72.20;;;;;;5035659;28;20022;-67
2023/05/04 02:07:08;;;;;;;1.23;1.17;;;19.60;72.20;;;;;;5034599;28;20396;-67
2023/05/04 02:09:34;;;;;;;3.00;1.27;;;19.60;72.30;;;;;;5035465;28;20026;-67
2023/05/04 02:11:59;;;;;;;1.17;1.08;;;19.50;72.20;;;;;;5035633;28;20017;-67
2023/05/04 02:14:25;;;;;;;2.97;1.45;;;19.50;72.30;;;;;;5023144;28;20036;-67
2023/05/04 02:16:51;;;;;;;1.50;1.38;;;19.50;72.40;;;;;;5019248;28;20341;-67
2023/05/04 02:19:16;;;;;;;1.27;1.10;;;19.50;72.30;;;;;;5020774;28;20479;-67
2023/05/04 02:21:42;;;;;;;1.27;1.17;;;19.50;72.40;;;;;;5026310;28;20037;-67
2023/05/04 02:24:08;;;;;;;1.25;1.00;;;19.50;72.40;;;;;;5014317;28;20058;-67
2023/05/04 02:26:35;;;;;;;2.33;1.30;;;19.50;72.40;;;;;;5015401;28;20022;-67
2023/05/04 02:29:02;;;;;;;1.83;1.02;;;19.50;72.50;;;;;;5015408;28;20018;-67
2023/05/04 02:31:28;;;;;;;1.52;1.27;;;19.50;72.50;;;;;;5015603;28;20052;-67
2023/05/04 02:33:53;;;;;;;1.92;1.20;;;19.50;72.50;;;;;;5015298;28;20061;-67
2023/05/04 02:36:19;;;;;;;2.85;1.35;;;19.50;72.60;;;;;;5015829;28;20025;-67
2023/05/04 02:38:45;;;;;;;1.10;1.10;;;19.50;72.50;;;;;;5034444;28;20048;-67
2023/05/04 02:41:10;;;;;;;1.17;1.08;;;19.50;72.60;;;;;;5035158;28;20037;-67
2023/05/04 02:43:36;;;;;;;1.40;1.30;;;19.50;72.60;;;;;;5034731;28;20068;-67
2023/05/04 02:46:02;;;;;;;1.27;1.17;;;19.50;72.60;;;;;;5034930;28;20053;-67
2023/05/04 02:48:27;;;;;;;1.20;1.10;;;19.50;72.70;;;;;;5034970;28;20546;-67
2023/05/04 02:50:53;;;;;;;1.48;1.05;;;19.50;72.70;;;;;;5018091;28;20485;-67
2023/05/04 02:53:18;;;;;;;2.55;1.17;;;19.50;72.60;;;;;;5014957;28;20372;-67
2023/05/04 02:55:44;;;;;;;1.30;1.20;;;19.50;72.70;;;;;;5015113;28;20029;-67
2023/05/04 02:58:10;;;;;;;2.08;1.40;;;19.50;72.70;;;;;;5014715;28;20103;-67
2023/05/04 03:00:35;;;;;;;1.20;1.10;;;19.50;72.80;;;;;;5014747;28;20061;-67
2023/05/04 03:03:01;;;;;;;1.30;1.08;;;19.50;72.70;;;;;;5046742;28;20058;-67
2023/05/04 03:05:27;;;;;;;2.00;1.20;;;19.50;72.70;;;;;;5014301;28;20029;-67
2023/05/04 03:07:52;;;;;;;1.42;1.10;;;19.50;72.80;;;;;;5013447;28;20030;-67
2023/05/04 03:10:18;;;;;;;1.92;1.10;;;19.50;72.80;;;;;;5013577;28;20026;-67
2023/05/04 03:12:44;;;;;;;1.67;1.00;;;19.50;72.80;;;;;;5014153;28;20030;-67
2023/05/04 03:15:09;;;;;;;1.20;1.10;;;19.50;72.80;;;;;;5014248;28;20024;-67
2023/05/04 03:17:36;;;;;;;0.95;0.95;;;19.50;72.90;;;;;;5014449;28;20390;-67
2023/05/04 03:20:01;;;;;;;2.50;1.35;;;19.50;72.90;;;;;;5014421;28;20164;-67
2023/05/04 03:22:27;;;;;;;1.38;1.10;;;19.50;72.90;;;;;;5013187;28;20102;-67
2023/05/04 03:24:52;;;;;;;4.38;1.10;;;19.50;73.00;;;;;;5013221;28;20030;-67
2023/05/04 03:27:18;;;;;;;1.85;1.20;;;19.50;73.20;;;;;;5014076;28;20034;-67
2023/05/04 03:29:44;;;;;;;3.28;1.30;;;19.50;73.10;;;;;;5014346;28;20038;-67
2023/05/04 03:32:11;;;;;;;1.30;1.10;;;19.50;73.20;;;;;;5014560;28;20109;-67
2023/05/04 03:34:37;;;;;;;1.15;1.08;;;19.50;73.20;;;;;;5012957;28;20026;-68
2023/05/04 03:37:03;;;;;;;1.20;1.10;;;19.50;73.20;;;;;;5018750;28;20400;-67
2023/05/04 03:39:28;;;;;;;1.27;1.00;;;19.50;73.20;;;;;;5032289;28;20099;-67
2023/05/04 03:41:54;;;;;;;1.00;1.00;;;19.50;73.20;;;;;;5033561;28;20052;-67
2023/05/04 03:44:20;;;;;;;1.30;1.20;;;19.50;73.30;;;;;;5033118;28;20103;-67
2023/05/04 03:46:45;;;;;;;1.50;1.08;;;19.50;73.30;;;;;;5033487;28;20541;-67
2023/05/04 03:49:11;;;;;;;3.20;1.27;;;19.50;73.30;;;;;;5033723;28;20026;-67
2023/05/04 03:51:36;;;;;;;1.50;1.40;;;19.50;73.40;;;;;;5033679;28;20025;-68
2023/05/04 03:54:02;;;;;;;2.03;1.05;;;19.50;73.30;;;;;;5032033;28;20040;-67
2023/05/04 03:56:28;;;;;;;1.27;1.17;;;19.50;73.30;;;;;;5033397;28;20057;-68
2023/05/04 03:58:53;;;;;;;1.75;1.17;;;19.50;73.30;;;;;;5033456;28;20392;-67
2023/05/04 04:01:19;;;;;;;2.15;1.00;;;19.50;73.20;;;;;;5033395;28;20056;-67
2023/05/04 04:03:45;;;;;;;1.17;1.08;;;19.50;73.20;;;;;;5033411;28;20100;-67
2023/05/04 04:06:12;;;;;;;13.05;1.55;;;19.50;73.20;;;;;;5033355;28;20503;-67
2023/05/04 04:08:37;;;;;;;1.55;1.20;;;19.50;73.20;;;;;;5033089;28;20014;-67
2023/05/04 04:11:03;;;;;;;1.77;1.40;;;19.50;73.20;;;;;;5033337;28;20029;-68
2023/05/04 04:13:29;;;;;;;1.90;1.38;;;19.50;73.20;;;;;;5032133;28;20101;-67
2023/05/04 04:15:54;;;;;;;5.00;1.30;;;19.50;73.20;;;;;;5032998;28;20032;-67
2023/05/04 04:18:21;;;;;;;1.35;1.10;;;19.50;73.30;;;;;;5032088;28;20025;-67
2023/05/04 04:20:47;;;;;;;2.17;1.65;;;19.50;73.20;;;;;;5031654;28;20030;-67
2023/05/04 04:23:13;;;;;;;1.67;1.00;;;19.50;73.20;;;;;;5032764;28;20036;-67
2023/05/04 04:25:38;;;;;;;3.28;1.15;;;19.50;73.30;;;;;;5024771;28;20026;-67
2023/05/04 04:28:04;;;;;;;3.03;1.15;;;19.50;73.30;;;;;;5013012;28;20049;-67
2023/05/04 04:30:29;;;;;;;1.75;1.30;;;19.50;73.30;;;;;;5013279;28;20030;-67
2023/05/04 04:32:56;;;;;;;1.00;0.90;;;19.50;73.40;;;;;;5013196;28;20041;-67
2023/05/04 04:35:22;;;;;;;1.35;1.10;;;19.50;73.30;;;;;;5013373;28;20480;-67
2023/05/04 04:37:48;;;;;;;1.30;1.20;;;19.50;73.30;;;;;;5023420;28;20029;-67
2023/05/04 04:40:14;;;;;;;1.63;1.08;;;19.50;73.40;;;;;;5033081;28;20029;-67
2023/05/04 04:42:40;;;;;;;1.00;1.00;;;19.50;73.30;;;;;;5032890;28;20029;-67
2023/05/04 04:45:06;;;;;;;1.23;1.00;;;19.40;73.40;;;;;;5031735;28;20028;-67
2023/05/04 04:47:32;;;;;;;2.13;1.08;;;19.50;73.50;;;;;;5032795;28;20044;-67
2023/05/04 04:49:58;;;;;;;1.55;1.15;;;19.50;73.40;;;;;;5031539;28;20104;-67
2023/05/04 04:52:24;;;;;;;1.42;1.33;;;19.50;73.50;;;;;;5032927;28;20049;-67
2023/05/04 04:54:50;;;;;;;1.45;1.23;;;19.50;73.40;;;;;;5031512;28;20053;-67
2023/05/04 04:57:16;;;;;;;1.10;1.00;;;19.50;73.40;;;;;;5033755;28;20433;-67
2023/05/04 04:59:42;;;;;;;1.38;1.27;;;19.50;73.50;;;;;;5036852;28;20018;-67
2023/05/04 05:02:08;;;;;;;1.30;1.20;;;19.50;73.50;;;;;;5035868;28;20013;-67
2023/05/04 05:04:36;;;;;;;4.03;1.00;;;19.50;73.40;;;;;;5035615;28;20082;-67
2023/05/04 05:07:02;;;;;;;1.35;1.15;;;19.40;73.40;;;;;;5035527;28;20478;-67
2023/05/04 05:09:27;;;;;;;1.13;0.90;;;19.50;73.50;;;;;;5036779;28;20029;-67
2023/05/04 05:11:53;;;;;;;1.20;1.08;;;19.50;73.40;;;;;;5035219;28;20670;-67
2023/05/04 05:14:18;;;;;;;1.50;1.20;;;19.50;73.40;;;;;;5036815;28;20033;-67
2023/05/04 05:16:44;;;;;;;1.23;0.98;;;19.40;73.40;;;;;;5036592;28;20032;-67
2023/05/04 05:19:10;;;;;;;2.80;1.17;;;19.40;73.40;;;;;;5035332;28;20032;-67
2023/05/04 05:21:36;;;;;;;2.63;1.10;;;19.40;73.40;;;;;;5036549;28;20027;-67
2023/05/04 05:24:01;;;;;;;4.30;1.20;;;19.40;73.40;;;;;;5036547;28;20030;-67
2023/05/04 05:26:27;;;;;;;1.33;1.23;;;19.40;73.40;;;;;;5036307;28;20087;-67
2023/05/04 05:28:52;;;;;;;2.75;1.60;;;19.40;73.50;;;;;;5036504;28;20044;-67
2023/05/04 05:31:18;;;;;;;1.00;0.95;;;19.40;73.40;;;;;;5036429;28;20468;-67
2023/05/04 05:33:44;;;;;;;1.00;1.00;;;19.40;73.40;;;;;;5036182;28;20034;-67
2023/05/04 05:36:09;;;;;;;1.42;1.27;;;19.40;73.40;;;;;;5036102;28;20037;-67
2023/05/04 05:38:35;;;;;;;1.33;1.00;;;19.40;73.50;;;;;;5036011;28;20049;-67
2023/05/04 05:41:00;;;;;;;1.05;1.05;;;19.40;73.50;;;;;;5036235;28;20489;-67
2023/05/04 05:43:26;;;;;;;1.52;0.98;;;19.40;73.50;;;;;;5036214;28;20057;-67
2023/05/04 05:45:52;;;;;;;1.15;1.05;;;19.40;73.50;;;;;;5035826;28;20045;-67
2023/05/04 05:48:18;;;;;;;1.58;1.20;;;19.40;73.50;;;;;;5036026;28;20279;-67
2023/05/04 05:50:43;;;;;;;2.42;1.52;;;19.40;73.50;;;;;;5035528;28;20029;-67
2023/05/04 05:53:09;;;;;;;4.55;1.45;;;19.40;73.50;;;;;;5035914;28;20033;-67
2023/05/04 05:55:35;;;;;;;1.70;1.50;;;19.40;72.20;;;;;;5036082;28;20036;-67
2023/05/04 05:58:00;;;;;;;1.40;1.30;;;19.40;72.50;;;;;;5035612;28;20045;-68
2023/05/04 06:00:26;;;;;;;0.90;0.90;;;19.40;72.10;;;;;;5035657;28;20036;-67
2023/05/04 06:02:52;;;;;;;4.55;1.10;;;19.40;72.20;;;;;;5035921;28;20025;-67
2023/05/04 06:05:17;;;;;;;2.05;1.02;;;19.40;72.30;;;;;;5035506;28;20021;-67
2023/05/04 06:07:43;;;;;;;1.40;1.30;;;19.40;72.20;;;;;;5032537;28;20037;-67
2023/05/04 06:10:09;;;;;;;1.75;1.45;;;19.40;72.00;;;;;;5034254;28;20022;-67
2023/05/04 06:12:35;;;;;;;4.50;1.38;;;19.30;72.00;;;;;;5035475;28;20032;-66
2023/05/04 06:15:01;;;;;;;2.72;1.23;;;19.30;71.90;;;;;;5035340;28;20079;-66
2023/05/04 06:17:26;;;;;;;1.77;1.10;;;19.30;71.70;;;;;;5035298;28;20060;-67
2023/05/04 06:19:52;;;;;;;2.63;1.42;;;19.30;71.70;;;;;;5033971;28;20057;-67
2023/05/04 06:22:18;;;;;;;1.60;1.23;;;19.30;71.70;;;;;;5035348;28;20119;-67
2023/05/04 06:24:43;;;;;;;3.03;1.25;;;19.30;71.70;;;;;;5034042;28;20101;-67
2023/05/04 06:27:09;;;;;;;1.30;1.20;;;19.30;71.60;;;;;;5035038;28;20029;-67
2023/05/04 06:29:37;;;;;;;2.30;1.42;;;19.30;71.70;;;;;;5035294;28;20093;-67
2023/05/04 06:32:02;;;;;;;4.43;1.40;;;19.30;71.60;;;;;;5034885;28;20468;-67
2023/05/04 06:34:28;;;;;;;2.28;1.05;;;19.30;71.40;;;;;;5034930;28;20029;-67
2023/05/04 06:36:54;;;;;;;2.90;1.40;;;19.20;71.40;;;;;;5034683;28;20037;-67
2023/05/04 06:39:19;;;;;;;5.05;1.80;;;19.30;71.50;;;;;;5033733;28;20025;-68
2023/05/04 06:41:45;;;;;;;2.22;1.48;;;19.20;71.30;;;;;;5034786;28;20029;-67
2023/05/04 06:44:10;;;;;;;1.42;1.30;;;19.20;71.30;;;;;;5034729;28;20021;-67
2023/05/04 06:46:36;;;;;;;1.58;1.30;;;19.20;71.30;;;;;;5034706;28;20026;-67
2023/05/04 06:49:05;;;;;;;1.95;1.30;;;19.20;71.30;;;;;;5034842;28;20100;-67
2023/05/04 06:51:31;;;;;;;2.63;1.50;;;19.20;71.30;;;;;;5033510;28;20526;-67
2023/05/04 06:53:58;;;;;;;4.45;1.92;;;19.20;71.20;;;;;;5033952;28;20026;-67
2023/05/04 06:56:24;;;;;;;11.98;2.40;;;19.20;72.60;;;;;;5032938;28;20554;-67
2023/05/04 06:58:49;;;;;;;1.77;1.67;;;19.20;72.90;;;;;;5033926;28;20105;-67
2023/05/04 07:01:15;;;;;;;3.08;1.80;;;19.20;72.00;;;;;;5032989;28;20064;-67
2023/05/04 07:03:41;;;;;;;3.75;1.70;;;19.20;72.00;;;;;;5032792;28;20025;-67
2023/05/04 07:06:07;;;;;;;3.88;1.73;;;19.10;72.00;;;;;;5032699;28;20036;-67
2023/05/04 07:08:33;;;;;;;2.53;1.50;;;19.20;72.10;;;;;;5032450;28;20026;-67
2023/05/04 07:10:59;;;;;;;2.70;1.90;;;19.10;72.00;;;;;;5033222;28;20026;-67
2023/05/04 07:13:25;;;;;;;2.38;1.83;;;19.10;72.10;;;;;;5033452;28;20388;-67
2023/05/04 07:15:50;;;;;;;1.63;1.40;;;19.10;72.00;;;;;;5033773;28;20083;-67
2023/05/04 07:18:16;;;;;;;1.83;1.50;;;19.10;72.00;;;;;;5033122;28;20152;-67
2023/05/04 07:20:42;;;;;;;1.80;1.70;;;19.20;72.00;;;;;;5033055;28;20420;-67
2023/05/04 07:23:07;;;;;;;4.00;1.73;;;19.20;72.00;;;;;;5033700;28;20111;-66
2023/05/04 07:25:33;;;;;;;1.48;1.38;;;19.10;71.90;;;;;;5033804;28;20028;-66
2023/05/04 07:27:59;;;;;;;2.63;1.50;;;19.10;71.90;;;;;;5033297;28;20093;-67
2023/05/04 07:30:25;;;;;;;3.63;2.20;;;19.10;71.90;;;;;;5033648;28;20045;-66
2023/05/04 07:32:51;;;;;;;2.78;1.30;;;19.10;71.90;;;;;;5032052;28;20111;-67
2023/05/04 07:35:17;;;;;;;2.55;1.67;;;19.10;71.90;;;;;;5033369;28;20116;-67
2023/05/04 07:37:42;;;;;;;1.95;1.60;;;19.10;71.90;;;;;;5029898;28;20395;-67
2023/05/04 07:40:09;;;;;;;2.22;1.48;;;19.10;71.80;;;;;;5033082;28;20029;-67
2023/05/04 07:42:35;;;;;;;5.72;1.85;;;19.10;71.80;;;;;;5033076;28;20468;-67
2023/05/04 07:45:00;;;;;;;2.70;1.75;;;19.10;71.80;;;;;;5033124;28;20068;-67
2023/05/04 07:47:26;;;;;;;4.38;1.88;;;19.10;71.80;;;;;;5032906;28;20017;-67
2023/05/04 07:49:52;;;;;;;3.05;1.75;;;19.10;71.80;;;;;;5033186;28;20049;-67
2023/05/04 07:52:17;;;;;;;1.92;1.83;;;19.10;71.80;;;;;;5031807;28;20097;-66
2023/05/04 07:54:43;;;;;;;3.17;1.70;;;19.00;71.70;;;;;;5033067;28;20461;-67
2023/05/04 07:57:09;;;;;;;2.53;1.50;;;19.00;71.80;;;;;;5032823;28;20049;-66
2023/05/04 07:59:34;;;;;;;1.70;1.60;;;19.00;71.80;;;;;;5033111;28;20373;-67
2023/05/04 08:02:00;;;;;;;3.55;1.70;;;19.00;71.70;;;;;;5031442;28;20553;-66
2023/05/04 08:04:25;;;;;;;2.53;1.67;;;19.00;71.70;;;;;;5031791;28;20029;-66
2023/05/04 08:06:51;;;;;;;2.55;2.00;;;19.00;71.70;;;;;;5032792;28;20394;-67
2023/05/04 08:09:18;;;;;;;2.40;1.63;;;19.00;71.70;;;;;;5032716;28;20446;-67
2023/05/04 08:11:45;;;;;;;2.17;1.63;;;19.00;71.70;;;;;;5032762;28;20045;-67
2023/05/04 08:14:10;;;;;;;1.77;1.63;;;19.00;71.70;;;;;;5031502;28;20029;-66
2023/05/04 08:16:38;;;;;;;2.83;1.80;;;19.00;71.70;;;;;;5032547;28;20040;-66
2023/05/04 08:19:04;;;;;;;3.70;1.70;;;19.00;71.60;;;;;;5032723;28;20476;-67
2023/05/04 08:21:30;;;;;;;1.95;1.63;;;19.00;71.70;;;;;;5032445;28;20025;-66
2023/05/04 08:23:55;;;;;;;2.42;1.60;;;19.00;71.60;;;;;;5032471;28;20013;-67
2023/05/04 08:26:22;;;;;;;2.60;1.80;;;19.00;71.60;;;;;;5032679;28;20500;-67
2023/05/04 08:28:47;;;;;;;2.28;1.40;;;19.00;71.50;;;;;;5032545;28;20022;-67
2023/05/04 08:31:13;;;;;;;1.65;1.55;;;19.00;71.50;;;;;;5032007;28;20112;-67
2023/05/04 08:33:39;;;;;;;2.83;1.75;;;19.00;71.50;;;;;;5032566;28;20484;-67
2023/05/04 08:36:06;;;;;;;1.70;1.60;;;19.00;71.50;;;;;;5032151;28;20509;-67
2023/05/04 08:38:31;;;;;;;2.75;1.70;;;19.00;71.60;;;;;;5032487;28;20112;-67
2023/05/04 08:41:00;;;;;;;2.63;1.77;;;19.00;71.50;;;;;;5031318;28;20101;-67
2023/05/04 08:43:26;;;;;;;1.63;1.45;;;19.00;71.50;;;;;;5032199;28;20079;-67
2023/05/04 08:45:52;;;;;;;2.70;1.88;;;19.00;71.50;;;;;;5030815;28;20507;-67
2023/05/04 08:48:18;;;;;;;2.25;1.55;;;19.00;71.40;;;;;;5032107;28;20026;-67
2023/05/04 08:50:44;;;;;;;2.17;1.58;;;19.00;71.40;;;;;;5031229;28;20028;-67
2023/05/04 08:53:13;;;;;;;1.60;1.50;;;18.90;71.40;;;;;;5014802;28;20466;-67
2023/05/04 08:55:40;;;;;;;2.83;1.80;;;19.00;71.50;;;;;;5031166;28;20517;-67
2023/05/04 08:58:12;;;;;;;1.65;1.50;;;19.00;71.40;;;;;;5014447;28;20056;-67
2023/05/04 09:00:38;;;;;;;1.58;1.30;;;18.90;71.40;;;;;;5030702;28;20052;-67
2023/05/04 09:03:09;;;;;;;3.15;1.60;;;18.90;71.40;;;;;;5030994;28;20022;-67
2023/05/04 09:05:35;;;;;;;2.45;1.85;;;19.00;71.40;;;;;;5032290;28;20499;-66
2023/05/04 09:08:00;;;;;;;2.05;1.67;;;18.90;71.30;;;;;;5014507;28;20101;-67
2023/05/04 09:10:26;;;;;;;1.77;1.40;;;18.90;71.30;;;;;;5032179;28;20096;-66
2023/05/04 09:12:55;;;;;;;1.77;1.42;;;18.90;71.30;;;;;;5032098;28;20026;-67
2023/05/04 09:15:20;;;;;;;1.40;1.30;;;18.90;71.30;;;;;;5032151;28;20053;-67
2023/05/04 09:18:05;;;;;;;1.83;1.52;;;18.90;71.30;;;;;;5032173;28;20061;-67
2023/05/04 09:20:46;;;;;;;1.85;1.65;;;18.90;71.20;;;;;;5030838;28;20025;-67
2023/05/04 09:23:12;;;;;;;1.65;1.55;;;18.90;71.20;;;;;;5030706;28;20480;-66
2023/05/04 09:25:51;;;;;;;1.40;1.30;;;18.90;71.30;;;;;;5030915;28;20529;-67
2023/05/04 09:28:17;;;;;;;1.73;1.35;;;18.90;71.20;;;;;;5031758;28;20052;-67
2023/05/04 09:30:43;;;;;;;1.80;1.27;;;18.90;71.20;;;;;;5014401;28;20025;-67
2023/05/04 09:33:12;;;;;;;1.38;1.27;;;18.90;71.20;;;;;;5031659;28;20109;-66
2023/05/04 09:35:41;;;;;;;1.30;1.20;;;18.90;71.30;;;;;;5032098;28;20026;-67
2023/05/04 09:38:07;;;;;;;1.73;1.20;;;18.90;71.10;;;;;;5014331;28;20404;-67
2023/05/04 09:40:42;;;;;;;1.70;1.30;;;18.90;71.20;;;;;;5031740;28;20030;-66
2023/05/04 09:43:08;;;;;;;1.73;1.45;;;18.90;71.10;;;;;;5033374;28;20025;-66
2023/05/04 09:45:40;;;;;;;1.27;1.13;;;18.90;71.20;;;;;;5035532;28;20021;-67
2023/05/04 09:48:27;;;;;;;;;;;18.90;71.10;;;;;;5036038;28;20108;-67
2023/05/04 09:50:54;;;;;;;1.95;1.30;;;18.90;71.10;;;;;;5035706;28;19912;-66
2023/05/04 09:53:22;;;;;;;1.77;1.33;;;18.90;71.10;;;;;;5035221;28;20078;-66
2023/05/04 09:55:50;;;;;;;1.20;1.05;;;18.90;71.00;;;;;;5034274;28;20478;-67
2023/05/04 09:58:15;;;;;;;1.75;1.30;;;18.90;71.00;;;;;;5017590;28;20057;-67
2023/05/04 10:00:41;;;;;;;1.35;1.17;;;18.90;71.00;;;;;;5033836;28;20064;-67
2023/05/04 10:03:07;;;;;;;1.27;1.17;;;18.90;71.00;;;;;;5034050;28;20030;-67
2023/05/04 10:05:32;;;;;;;1.77;1.30;;;18.90;71.00;;;;;;5033938;28;20021;-67
2023/05/04 10:07:58;;;;;;;1.15;1.05;;;18.90;71.00;;;;;;5033766;28;20018;-67
2023/05/04 10:10:24;;;;;;;1.02;0.98;;;18.90;71.00;;;;;;5033788;28;20029;-66
2023/05/04 10:12:50;;;;;;;1.83;1.13;;;18.90;71.00;;;;;;5034795;28;20075;-67
2023/05/04 10:15:15;;;;;;;1.20;1.10;;;18.90;70.90;;;;;;5017290;28;20033;-67
2023/05/04 10:18:20;;;;;;;1.10;1.02;;;18.90;70.90;;;;;;5034996;28;20029;-67
2023/05/04 10:20:55;;;;;;;0.90;0.88;;;18.90;70.90;;;;;;5034650;28;20108;-67
2023/05/04 10:23:47;;;;;;;2.92;1.02;;;18.90;70.90;;;;;;5034677;28;20434;-67
2023/05/04 10:26:35;;;;;;;1.20;1.10;;;18.90;70.90;;;;;;5034966;28;20032;-67
2023/05/04 10:29:23;;;;;;;1.10;1.00;;;18.90;70.90;;;;;;5033767;28;20022;-67
2023/05/04 10:31:48;;;;;;;0.93;0.93;;;18.90;70.90;;;;;;5034663;28;20523;-66
2023/05/04 10:34:25;;;;;;;2.35;1.02;;;18.90;70.90;;;;;;5016773;28;20049;-67
2023/05/04 10:36:50;;;;;;;1.15;0.95;;;18.80;70.80;;;;;;5033210;28;20128;-67
2023/05/04 10:39:25;;;;;;;2.05;1.00;;;18.90;71.00;;;;;;5034431;28;20125;-67
2023/05/04 10:42:03;;;;;;;1.02;0.90;;;18.90;70.90;;;;;;5033158;28;20396;-67
2023/05/04 10:44:35;;;;;;;1.00;0.98;;;18.90;70.90;;;;;;5034086;28;20022;-67
2023/05/04 10:47:05;;;;;;;1.35;1.05;;;18.90;70.90;;;;;;5034709;28;20032;-67
2023/05/04 10:49:31;;;;;;;1.58;0.82;;;18.90;70.90;;;;;;5034169;28;20388;-67
2023/05/04 10:52:16;;;;;;;1.20;1.00;;;18.90;70.90;;;;;;5033260;28;20049;-67
2023/05/04 10:54:42;;;;;;;1.05;0.90;;;18.90;70.90;;;;;;5032919;28;20029;-67
2023/05/04 10:57:13;;;;;;;1.73;1.00;;;18.80;70.90;;;;;;5016534;28;20049;-67
2023/05/04 10:59:39;;;;;;;0.90;0.90;;;18.80;70.90;;;;;;5033973;28;20104;-66
2023/05/04 11:02:06;;;;;;;1.58;1.05;;;18.90;71.00;;;;;;5033024;28;20033;-67
2023/05/04 11:04:32;;;;;;;0.90;0.90;;;18.80;70.90;;;;;;5033856;28;20096;-67
2023/05/04 11:07:07;;;;;;;0.93;0.88;;;18.90;71.00;;;;;;5032889;28;20472;-67
2023/05/04 11:09:43;;;;;;;0.80;0.80;;;18.90;71.00;;;;;;5033719;28;20018;-67
2023/05/04 11:12:12;;;;;;;1.67;1.05;;;18.90;71.00;;;;;;5032991;28;20040;-67
2023/05/04 11:14:41;;;;;;;1.23;1.05;;;18.90;71.00;;;;;;5032570;28;20029;-67
2023/05/04 11:17:11;;;;;;;1.00;0.98;;;18.80;71.00;;;;;;5032818;28;20029;-67
2023/05/04 11:19:48;;;;;;;0.80;0.80;;;18.90;71.00;;;;;;5033712;28;20630;-67
2023/05/04 11:22:14;;;;;;;1.15;1.05;;;18.90;71.10;;;;;;5032467;28;20585;-67
2023/05/04 11:24:41;;;;;;;2.42;1.00;;;18.90;71.00;;;;;;5033458;28;20017;-67
2023/05/04 11:27:07;;;;;;;1.13;0.85;;;18.90;71.00;;;;;;5032497;28;20083;-67
2023/05/04 11:29:33;;;;;;;1.00;0.90;;;18.90;71.10;;;;;;5033486;28;20029;-67
2023/05/04 11:31:58;;;;;;;1.02;0.85;;;18.90;71.00;;;;;;5033610;28;20030;-67
2023/05/04 14:06:53;;;;;;;0.60;0.60;;;18.80;70.00;;;;;;6167664;22;1354741;-67
2023/05/04 14:09:19;;;;;;;0.50;0.40;;;19.00;70.40;;;;;;6223315;23;20008;-67
2023/05/04 14:11:45;;;;;;;0.85;0.60;;;18.90;70.50;;;;;;6223354;23;20401;-67
2023/05/04 14:14:10;;;;;;;0.85;0.45;;;18.90;70.60;;;;;;6223228;23;20008;-67
2023/05/04 14:16:36;;;;;;;0.50;0.50;;;18.90;70.60;;;;;;6223413;23;20067;-67
2023/05/04 14:19:02;;;;;;;1.17;0.85;;;18.90;70.60;;;;;;6196906;23;20079;-67
2023/05/04 14:21:28;;;;;;;1.55;0.73;;;18.90;70.60;;;;;;6221912;23;20007;-67
2023/05/04 14:23:53;;;;;;;1.13;0.60;;;18.90;70.60;;;;;;6221821;23;20000;-67
2023/05/04 14:26:19;;;;;;;1.63;0.80;;;18.90;70.60;;;;;;6223013;23;20005;-67
2023/05/04 14:28:44;;;;;;;1.02;0.68;;;18.90;70.70;;;;;;6223826;23;20325;-67
2023/05/04 14:31:10;;;;;;;2.22;0.60;;;18.90;70.60;;;;;;6223075;23;20502;-67
2023/05/04 14:33:36;;;;;;;1.20;0.70;;;18.90;70.70;;;;;;6221756;23;20054;-67
2023/05/04 14:36:03;;;;;;;0.73;0.50;;;18.90;70.70;;;;;;6221790;23;20008;-66
2023/05/04 14:38:28;;;;;;;0.93;0.55;;;18.90;70.70;;;;;;6221620;23;20438;-66
2023/05/04 14:40:56;;;;;;;0.75;0.50;;;18.90;70.70;;;;;;6223130;23;20072;-66
2023/05/04 14:43:21;;;;;;;1.50;0.70;;;18.90;70.70;;;;;;6223029;23;20001;-66
2023/05/04 14:45:47;;;;;;;1.15;0.60;;;18.90;70.60;;;;;;6223046;23;20004;-66
2023/05/04 14:48:13;;;;;;;1.27;0.77;;;18.90;70.70;;;;;;6221737;23;20076;-66
2023/05/04 14:50:40;;;;;;;2.40;0.60;;;18.90;70.60;;;;;;6223124;23;20031;-66
2023/05/04 14:53:07;;;;;;;1.13;0.60;;;18.90;70.60;;;;;;6223108;23;20000;-66
2023/05/04 14:55:33;;;;;;;0.82;0.60;;;18.90;70.60;;;;;;6222822;23;20004;-66
2023/05/04 14:57:59;;;;;;;0.93;0.52;;;18.90;70.80;;;;;;6222862;23;20055;-66
2023/05/04 15:00:24;;;;;;;1.05;0.60;;;18.90;70.80;;;;;;6222864;23;20005;-66
2023/05/04 15:02:50;;;;;;;0.90;0.77;;;18.90;70.70;;;;;;6223124;23;20376;-66
2023/05/04 15:05:16;;;;;;;2.95;0.60;;;18.90;70.80;;;;;;6222735;23;20024;-66
2023/05/04 15:07:41;;;;;;;0.45;0.40;;;18.90;70.70;;;;;;6216277;23;20005;-66
2023/05/04 15:10:08;;;;;;;1.00;0.60;;;18.90;70.70;;;;;;6216182;23;20075;-66
2023/05/04 15:12:33;;;;;;;0.50;0.50;;;19.00;70.80;;;;;;6216052;23;20451;-66
2023/05/04 15:14:59;;;;;;;1.67;0.80;;;19.00;70.80;;;;;;6216098;23;20001;-66
2023/05/04 15:17:25;;;;;;;1.70;0.60;;;19.00;70.80;;;;;;6216054;23;20072;-66
2023/05/04 15:19:50;;;;;;;1.17;0.70;;;18.90;70.70;;;;;;6216179;23;19997;-66